createdAt,value
2022-08-10T00:00:54.895Z,50.97
2022-08-10T00:03:22.606Z,50.93
2022-08-10T00:05:54.769Z,51.30
2022-08-10T00:08:24.097Z,51.05
2022-08-10T00:10:52.754Z,50.84
2022-08-10T00:13:22.176Z,50.95
2022-08-10T00:15:53.739Z,50.70
2022-08-10T00:18:31.402Z,50.83
2022-08-10T00:21:04.680Z,50.81
2022-08-10T00:23:32.404Z,50.98
2022-08-10T00:26:00.515Z,51.18
2022-08-10T00:28:29.710Z,50.92
2022-08-10T00:30:57.321Z,50.97
2022-08-10T00:33:25.242Z,51.02
2022-08-10T00:35:52.922Z,50.99
2022-08-10T00:38:20.618Z,50.93
2022-08-10T00:40:48.387Z,51.14
2022-08-10T00:43:23.071Z,51.38
2022-08-10T00:45:59.499Z,51.74
2022-08-10T00:48:29.897Z,51.13
2022-08-10T00:50:59.147Z,51.65
2022-08-10T00:53:27.368Z,51.47
2022-08-10T00:57:14.613Z,51.68
2022-08-10T00:58:43.468Z,51.60
2022-08-10T01:02:09.500Z,51.55
2022-08-10T01:04:57.792Z,51.82
2022-08-10T01:07:04.059Z,51.92
2022-08-10T01:09:36.007Z,51.58
2022-08-10T01:12:38.749Z,51.99
2022-08-10T01:15:03.372Z,52.01
2022-08-10T01:17:50.118Z,52.35
2022-08-10T01:20:30.285Z,52.12
2022-08-10T01:23:29.770Z,52.46
2022-08-10T01:26:12.538Z,52.28
2022-08-10T01:29:07.813Z,52.20
2022-08-10T01:31:42.827Z,52.25
2022-08-10T01:34:14.673Z,52.19
2022-08-10T01:36:49.275Z,52.11
2022-08-10T01:39:23.609Z,52.51
2022-08-10T01:41:55.885Z,52.38
2022-08-10T01:44:26.878Z,52.44
2022-08-10T01:47:22.407Z,52.36
2022-08-10T01:49:50.258Z,52.62
2022-08-10T01:52:19.107Z,52.84
2022-08-10T01:54:47.302Z,52.76
2022-08-10T01:57:17.809Z,52.76
2022-08-10T01:59:54.521Z,52.99
2022-08-10T02:02:31.660Z,53.03
2022-08-10T02:05:00.709Z,53.07
2022-08-10T02:07:29.808Z,52.79
2022-08-10T02:10:00.861Z,53.07
2022-08-10T02:12:31.715Z,53.24
2022-08-10T02:15:02.439Z,53.11
2022-08-10T02:17:59.563Z,53.20
2022-08-10T02:20:25.584Z,53.10
2022-08-10T02:22:56.739Z,53.18
2022-08-10T02:25:40.960Z,53.27
2022-08-10T02:28:12.311Z,53.34
2022-08-10T02:30:56.375Z,53.43
2022-08-10T02:33:27.783Z,53.58
2022-08-10T02:35:56.742Z,53.73
2022-08-10T02:38:59.300Z,53.79
2022-08-10T02:45:03.201Z,54.21
2022-08-10T02:45:22.918Z,53.65
2022-08-10T02:47:09.200Z,54.02
2022-08-10T02:49:41.786Z,54.35
2022-08-10T02:52:13.136Z,54.37
2022-08-10T02:54:46.977Z,54.43
2022-08-10T02:57:17.707Z,53.98
2022-08-10T02:59:47.454Z,54.31
2022-08-10T03:02:20.850Z,54.21
2022-08-10T03:04:55.118Z,54.46
2022-08-10T03:07:44.288Z,54.55
2022-08-10T03:10:16.990Z,54.49
2022-08-10T03:12:45.360Z,54.71
2022-08-10T03:15:15.700Z,54.42
2022-08-10T03:17:57.856Z,54.49
2022-08-10T03:20:37.896Z,54.80
2022-08-10T03:23:10.159Z,54.69
2022-08-10T03:25:38.128Z,54.52
2022-08-10T03:28:06.247Z,54.61
2022-08-10T03:30:34.573Z,54.46
2022-08-10T03:33:04.262Z,54.69
2022-08-10T03:35:33.389Z,54.83
2022-08-10T03:38:01.381Z,54.82
2022-08-10T03:40:35.853Z,54.76
2022-08-10T03:43:17.190Z,54.60
2022-08-10T03:45:54.270Z,55.00
2022-08-10T03:48:23.794Z,54.98
2022-08-10T03:50:53.109Z,55.16
2022-08-10T03:53:25.298Z,54.90
2022-08-10T03:56:28.672Z,55.08
2022-08-10T03:58:57.528Z,55.52
2022-08-10T04:02:52.386Z,55.60
2022-08-10T04:04:14.662Z,54.97
2022-08-10T04:06:46.650Z,55.29
2022-08-10T04:09:19.053Z,55.25
2022-08-10T04:11:47.181Z,55.16
2022-08-10T04:14:38.013Z,55.75
2022-08-10T04:17:02.475Z,55.62
2022-08-10T04:19:31.362Z,55.57
2022-08-10T04:22:06.199Z,55.44
2022-08-10T04:24:35.374Z,55.68
2022-08-10T04:27:03.630Z,55.49
2022-08-10T04:29:31.417Z,55.88
2022-08-10T04:31:59.106Z,55.88
2022-08-10T04:34:31.658Z,56.07
2022-08-10T04:37:06.739Z,55.92
2022-08-10T04:39:36.502Z,55.86
2022-08-10T04:42:04.816Z,55.64
2022-08-10T04:44:33.475Z,56.20
2022-08-10T04:47:01.143Z,56.53
2022-08-10T04:49:54.930Z,56.18
2022-08-10T04:52:17.942Z,56.43
2022-08-10T04:54:45.563Z,56.86
2022-08-10T04:57:13.289Z,56.65
2022-08-10T04:59:40.970Z,56.59
2022-08-10T05:02:28.566Z,56.82
2022-08-10T05:04:56.273Z,56.46
2022-08-10T05:07:25.317Z,56.80
2022-08-10T05:10:03.972Z,56.88
2022-08-10T05:12:36.292Z,56.97
2022-08-10T05:15:07.238Z,56.45
2022-08-10T05:17:35.788Z,56.44
2022-08-10T05:20:06.740Z,56.71
2022-08-10T05:22:38.110Z,56.64
2022-08-10T05:25:07.843Z,56.72
2022-08-10T05:27:35.890Z,56.33
2022-08-10T05:30:04.493Z,56.27
2022-08-10T05:32:34.348Z,56.07
2022-08-10T05:35:20.546Z,56.34
2022-08-10T05:38:09.033Z,55.78
2022-08-10T05:40:40.918Z,56.26
2022-08-10T05:43:10.616Z,55.79
2022-08-10T05:46:19.939Z,55.71
2022-08-10T05:48:55.463Z,56.29
2022-08-10T05:51:16.388Z,56.45
2022-08-10T05:54:04.108Z,56.06
2022-08-10T05:56:56.663Z,56.17
2022-08-10T06:00:34.372Z,55.76
2022-08-10T06:02:33.261Z,55.41
2022-08-10T06:05:00.001Z,55.40
2022-08-10T06:07:28.188Z,55.62
2022-08-10T06:09:59.202Z,55.25
2022-08-10T06:12:31.346Z,54.93
2022-08-10T06:15:05.336Z,55.04
2022-08-10T06:17:33.925Z,54.74
2022-08-10T06:20:02.377Z,53.87
2022-08-10T06:22:32.376Z,54.25
2022-08-10T06:27:55.446Z,54.14
2022-08-10T06:30:24.664Z,54.19
2022-08-10T06:32:55.287Z,54.27
2022-08-10T06:35:24.449Z,54.31
2022-08-10T06:37:54.062Z,53.50
2022-08-10T06:40:23.898Z,53.14
2022-08-10T06:42:52.090Z,53.42
2022-08-10T06:45:23.468Z,53.69
2022-08-10T06:47:56.883Z,52.90
2022-08-10T06:50:44.703Z,52.20
2022-08-10T06:53:15.448Z,52.70
2022-08-10T06:55:56.208Z,52.39
2022-08-10T06:58:27.253Z,52.17
2022-08-10T07:00:56.466Z,52.35
2022-08-10T07:03:27.805Z,51.77
2022-08-10T07:05:55.896Z,52.23
2022-08-10T07:08:24.487Z,52.03
2022-08-10T07:10:54.507Z,52.08
2022-08-10T07:14:16.246Z,52.20
2022-08-10T07:16:13.027Z,51.83
2022-08-10T07:18:43.630Z,51.54
2022-08-10T07:21:12.881Z,51.42
2022-08-10T07:23:57.015Z,51.59
2022-08-10T07:26:30.294Z,51.43
2022-08-10T07:28:58.271Z,50.49
2022-08-10T07:31:54.763Z,51.52
2022-08-10T07:34:28.735Z,50.95
2022-08-10T07:37:01.662Z,50.90
2022-08-10T07:39:59.586Z,50.15
2022-08-10T07:42:21.263Z,49.90
2022-08-10T07:44:50.465Z,50.06
2022-08-10T07:47:52.990Z,50.14
2022-08-10T07:50:16.019Z,50.01
2022-08-10T07:52:44.129Z,49.82
2022-08-10T07:55:14.961Z,49.81
2022-08-10T07:57:46.150Z,50.38
2022-08-10T08:00:15.111Z,50.00
2022-08-10T08:02:47.079Z,49.81
2022-08-10T08:05:53.684Z,49.75
2022-08-10T08:08:03.913Z,49.71
2022-08-10T08:10:32.555Z,49.67
2022-08-10T08:13:03.226Z,49.18
2022-08-10T08:16:20.900Z,49.29
2022-08-10T08:18:25.336Z,49.62
2022-08-10T08:20:54.452Z,49.88
2022-08-10T08:24:05.430Z,49.45
2022-08-10T08:26:12.124Z,49.33
2022-08-10T08:28:45.913Z,48.49
2022-08-10T08:31:15.534Z,48.70
2022-08-10T08:33:45.330Z,47.87
2022-08-10T08:36:16.005Z,47.82
2022-08-10T08:38:44.335Z,48.02
2022-08-10T08:41:25.619Z,47.78
2022-08-10T08:44:05.742Z,47.36
2022-08-10T08:46:59.468Z,46.95
2022-08-10T08:50:08.525Z,47.81
2022-08-10T08:52:39.110Z,47.68
2022-08-10T08:55:50.236Z,46.98
2022-08-10T08:58:14.702Z,46.84
2022-08-10T09:00:47.199Z,46.34
2022-08-10T09:03:28.855Z,45.84
2022-08-10T09:06:09.218Z,45.84
2022-08-10T09:09:08.358Z,46.06
2022-08-10T09:11:45.902Z,45.95
2022-08-10T09:14:26.285Z,45.51
2022-08-10T09:17:00.332Z,45.03
2022-08-10T09:19:36.513Z,45.19
2022-08-10T09:22:18.265Z,44.46
2022-08-10T09:24:53.376Z,45.26
2022-08-10T09:27:22.974Z,45.02
2022-08-10T09:29:55.572Z,44.54
2022-08-10T09:36:19.460Z,44.52
2022-08-10T09:36:25.988Z,44.29
2022-08-10T09:38:25.945Z,44.42
2022-08-10T09:41:04.974Z,44.03
2022-08-10T09:43:43.549Z,43.85
2022-08-10T09:46:17.624Z,42.99
2022-08-10T09:48:51.733Z,42.75
2022-08-10T09:51:47.293Z,43.42
2022-08-10T09:54:30.006Z,43.61
2022-08-10T09:57:44.663Z,42.51
2022-08-10T10:00:01.975Z,42.59
2022-08-10T10:02:36.439Z,42.47
2022-08-10T10:05:13.424Z,41.91
2022-08-10T10:07:46.887Z,42.17
2022-08-10T10:10:18.180Z,42.72
2022-08-10T10:12:52.295Z,41.86
2022-08-10T10:15:31.189Z,41.88
2022-08-10T10:18:10.419Z,42.27
2022-08-10T10:20:42.169Z,42.40
2022-08-10T10:23:17.708Z,41.83
2022-08-10T10:25:52.593Z,41.65
2022-08-10T10:28:59.749Z,41.56
2022-08-10T10:31:26.117Z,41.03
2022-08-10T10:34:02.413Z,41.22
2022-08-10T10:36:31.671Z,40.72
2022-08-10T10:39:00.316Z,40.47
2022-08-10T10:41:57.375Z,40.53
2022-08-10T10:44:41.974Z,41.40
2022-08-10T10:47:20.648Z,41.39
2022-08-10T10:49:53.604Z,41.43
2022-08-10T10:52:30.924Z,42.03
2022-08-10T10:55:06.767Z,41.54
2022-08-10T10:57:58.451Z,41.29
2022-08-10T11:00:30.725Z,41.31
2022-08-10T11:03:09.165Z,41.08
2022-08-10T11:05:44.660Z,40.41
2022-08-10T11:08:18.232Z,40.81
2022-08-10T11:10:52.645Z,40.11
2022-08-10T11:14:25.529Z,40.42
2022-08-10T11:16:18.283Z,40.40
2022-08-10T11:18:56.133Z,40.02
2022-08-10T11:21:38.381Z,39.26
2022-08-10T11:24:48.457Z,39.03
2022-08-10T11:27:03.854Z,39.44
2022-08-10T11:29:36.178Z,37.85
2022-08-10T11:32:07.620Z,38.27
2022-08-10T11:35:11.930Z,38.92
2022-08-10T11:38:31.559Z,39.00
2022-08-10T11:40:44.053Z,39.11
2022-08-10T11:43:17.258Z,38.88
2022-08-10T11:45:52.571Z,38.67
2022-08-10T11:48:54.440Z,38.62
2022-08-10T11:51:20.875Z,38.88
2022-08-10T11:53:52.396Z,38.84
2022-08-10T11:56:41.035Z,38.85
2022-08-10T11:59:26.820Z,38.43
2022-08-10T12:01:56.138Z,38.79
2022-08-10T12:04:24.761Z,38.21
2022-08-10T12:06:56.007Z,37.68
2022-08-10T12:10:08.702Z,37.76
2022-08-10T12:12:14.568Z,37.92
2022-08-10T12:14:46.509Z,37.81
2022-08-10T12:17:18.160Z,37.94
2022-08-10T12:20:01.447Z,37.57
2022-08-10T12:22:34.896Z,36.97
2022-08-10T12:25:05.093Z,37.33
2022-08-10T12:27:40.019Z,37.59
2022-08-10T12:30:09.766Z,37.50
2022-08-10T12:32:43.312Z,37.02
2022-08-10T12:35:21.901Z,36.96
2022-08-10T12:38:01.080Z,37.42
2022-08-10T12:40:35.754Z,37.83
2022-08-10T12:44:05.294Z,37.18
2022-08-10T12:46:06.811Z,36.45
2022-08-10T12:48:38.149Z,37.44
2022-08-10T12:51:09.142Z,37.84
2022-08-10T12:53:45.479Z,37.39
2022-08-10T12:56:22.076Z,37.50
2022-08-10T12:58:58.041Z,37.42
2022-08-10T13:02:06.383Z,37.54
2022-08-10T13:04:23.302Z,37.05
2022-08-10T13:06:52.557Z,37.08
2022-08-10T13:09:22.806Z,37.96
2022-08-10T13:12:35.450Z,37.10
2022-08-10T13:14:50.876Z,36.65
2022-08-10T13:17:23.464Z,36.47
2022-08-10T13:19:55.668Z,36.39
2022-08-10T13:22:28.300Z,36.96
2022-08-10T13:25:01.554Z,35.80
2022-08-10T13:28:01.086Z,36.44
2022-08-10T13:30:37.319Z,36.74
2022-08-10T13:33:06.334Z,36.64
2022-08-10T13:35:35.443Z,35.70
2022-08-10T13:38:03.792Z,35.42
2022-08-10T13:40:32.788Z,36.40
2022-08-10T13:43:02.064Z,35.95
2022-08-10T13:45:31.730Z,36.38
2022-08-10T13:48:10.888Z,36.63
2022-08-10T13:50:39.945Z,35.82
2022-08-10T13:53:14.953Z,35.73
2022-08-10T13:55:53.598Z,35.56
2022-08-10T13:58:27.256Z,36.01
2022-08-10T14:03:50.172Z,35.98
2022-08-10T14:06:19.582Z,36.13
2022-08-10T14:08:50.102Z,35.67
2022-08-10T14:11:19.957Z,36.01
2022-08-10T14:13:53.346Z,35.98
2022-08-10T14:16:23.466Z,36.75
2022-08-10T14:18:53.500Z,36.37
2022-08-10T14:21:22.037Z,36.00
2022-08-10T14:23:52.707Z,36.08
2022-08-10T14:26:24.756Z,36.56
2022-08-10T14:28:56.043Z,36.12
2022-08-10T14:31:33.451Z,35.39
2022-08-10T14:34:03.711Z,35.46
2022-08-10T14:36:39.595Z,35.60
2022-08-10T14:39:08.327Z,35.60
2022-08-10T14:42:01.593Z,34.67
2022-08-10T14:44:26.431Z,35.57
2022-08-10T14:46:59.508Z,35.48
2022-08-10T14:49:29.774Z,35.33
2022-08-10T14:52:19.057Z,35.21
2022-08-10T14:54:56.589Z,35.16
2022-08-10T14:58:11.364Z,35.10
2022-08-10T15:00:30.719Z,35.02
2022-08-10T15:03:36.553Z,36.02
2022-08-10T15:05:54.155Z,35.47
2022-08-10T15:08:28.314Z,35.44
2022-08-10T15:10:58.645Z,35.22
2022-08-10T15:13:34.603Z,35.18
2022-08-10T15:16:13.684Z,36.01
2022-08-10T15:18:58.038Z,35.10
2022-08-10T15:21:29.168Z,35.34
2022-08-10T15:24:14.850Z,34.86
2022-08-10T15:26:51.277Z,34.61
2022-08-10T15:29:26.767Z,34.95
2022-08-10T15:32:12.601Z,35.26
2022-08-10T15:35:01.841Z,35.57
2022-08-10T15:37:40.088Z,35.48
2022-08-10T15:40:26.041Z,35.02
2022-08-10T15:43:00.660Z,35.34
2022-08-10T15:45:28.862Z,35.47
2022-08-10T15:48:03.716Z,35.82
2022-08-10T15:50:39.924Z,35.17
2022-08-10T15:53:13.941Z,35.60
2022-08-10T15:55:48.901Z,35.80
2022-08-10T15:58:23.850Z,35.39
2022-08-10T16:02:03.859Z,35.18
2022-08-10T16:04:08.519Z,35.75
2022-08-10T16:06:41.609Z,35.77
2022-08-10T16:10:23.542Z,36.15
2022-08-10T16:12:06.190Z,35.66
2022-08-10T16:14:36.968Z,35.56
2022-08-10T16:17:10.330Z,35.81
2022-08-10T16:19:39.841Z,36.08
2022-08-10T16:22:36.622Z,35.36
2022-08-10T16:24:58.722Z,35.41
2022-08-10T16:27:29.384Z,35.40
2022-08-10T16:30:00.134Z,35.16
2022-08-10T16:32:30.201Z,35.48
2022-08-10T16:34:58.551Z,35.38
2022-08-10T16:37:56.593Z,35.82
2022-08-10T16:40:25.475Z,35.56
2022-08-10T16:42:54.625Z,35.60
2022-08-10T16:45:31.303Z,35.37
2022-08-10T16:47:59.414Z,35.65
2022-08-10T16:50:29.105Z,35.37
2022-08-10T16:53:02.083Z,35.82
2022-08-10T16:55:48.211Z,35.64
2022-08-10T16:58:20.764Z,35.99
2022-08-10T17:00:50.522Z,35.48
2022-08-10T17:03:22.425Z,35.75
2022-08-10T17:06:13.431Z,35.83
2022-08-10T17:08:48.166Z,36.03
2022-08-10T17:11:18.329Z,35.54
2022-08-10T17:13:46.287Z,35.99
2022-08-10T17:16:14.592Z,35.71
2022-08-10T17:18:46.572Z,36.05
2022-08-10T17:21:16.711Z,35.90
2022-08-10T17:23:49.814Z,36.12
2022-08-10T17:26:20.715Z,35.96
2022-08-10T17:29:08.358Z,36.35
2022-08-10T17:31:55.040Z,36.47
2022-08-10T17:34:28.090Z,36.59
2022-08-10T17:36:58.690Z,36.96
2022-08-10T17:39:41.154Z,36.78
2022-08-10T17:42:09.155Z,36.78
2022-08-10T17:44:37.406Z,37.05
2022-08-10T17:47:10.995Z,36.91
2022-08-10T17:49:40.125Z,37.12
2022-08-10T17:52:09.861Z,37.15
2022-08-10T17:54:41.860Z,37.50
2022-08-10T17:57:11.383Z,37.26
2022-08-10T17:59:40.323Z,37.45
2022-08-10T18:02:10.203Z,38.57
2022-08-10T18:04:41.522Z,38.58
2022-08-10T18:07:11.067Z,38.86
2022-08-10T18:09:43.663Z,38.62
2022-08-10T18:12:17.996Z,38.27
2022-08-10T18:14:48.692Z,38.31
2022-08-10T18:17:20.012Z,38.37
2022-08-10T18:19:53.158Z,38.28
2022-08-10T18:22:22.107Z,38.41
2022-08-10T18:24:52.007Z,38.37
2022-08-10T18:27:20.436Z,38.74
2022-08-10T18:29:51.225Z,38.72
2022-08-10T18:32:20.259Z,38.82
2022-08-10T18:34:48.792Z,38.81
2022-08-10T18:37:20.273Z,39.01
2022-08-10T18:39:51.296Z,39.19
2022-08-10T18:42:21.231Z,39.23
2022-08-10T18:44:54.266Z,39.06
2022-08-10T18:47:30.491Z,39.29
2022-08-10T18:50:01.668Z,39.58
2022-08-10T18:52:31.819Z,39.71
2022-08-10T18:55:23.056Z,39.53
2022-08-10T18:58:30.843Z,40.10
2022-08-10T19:01:19.123Z,39.49
2022-08-10T19:03:55.232Z,40.11
2022-08-10T19:06:38.441Z,40.04
2022-08-10T19:09:45.507Z,39.74
2022-08-10T19:12:30.202Z,40.01
2022-08-10T19:15:06.655Z,40.35
2022-08-10T19:18:03.959Z,40.13
2022-08-10T19:20:35.269Z,39.90
2022-08-10T19:23:14.164Z,40.54
2022-08-10T19:26:40.916Z,40.42
2022-08-10T19:28:39.418Z,40.65
2022-08-10T19:31:13.444Z,40.31
2022-08-10T19:33:49.853Z,40.47
2022-08-10T19:36:20.779Z,40.18
2022-08-10T19:38:55.620Z,40.81
2022-08-10T19:41:32.107Z,40.93
2022-08-10T19:44:16.615Z,40.29
2022-08-10T19:46:47.168Z,40.88
2022-08-10T19:49:21.653Z,40.93
2022-08-10T19:51:55.324Z,41.36
2022-08-10T19:54:27.235Z,41.29
2022-08-10T19:57:02.044Z,40.91
2022-08-10T20:00:16.164Z,40.93
2022-08-10T20:02:27.181Z,41.13
2022-08-10T20:05:00.947Z,40.96
2022-08-10T20:07:35.237Z,41.03
2022-08-10T20:10:05.682Z,41.34
2022-08-10T20:12:43.724Z,41.34
2022-08-10T20:15:17.354Z,41.68
2022-08-10T20:17:55.065Z,41.98
2022-08-10T20:20:30.451Z,41.99
2022-08-10T20:23:03.951Z,42.45
2022-08-10T20:25:33.184Z,42.44
2022-08-10T20:28:06.371Z,42.06
2022-08-10T20:30:37.587Z,42.29
2022-08-10T20:33:12.547Z,42.93
2022-08-10T20:35:50.315Z,43.04
2022-08-10T20:38:27.156Z,43.30
2022-08-10T20:41:04.331Z,43.45
2022-08-10T20:43:38.956Z,43.49
2022-08-10T20:46:12.314Z,43.86
2022-08-10T20:48:44.795Z,44.37
2022-08-10T20:51:15.717Z,44.69
2022-08-10T20:53:46.887Z,44.27
2022-08-10T20:56:18.684Z,44.87
2022-08-10T20:59:10.214Z,45.22
2022-08-10T21:02:06.599Z,44.93
2022-08-10T21:04:49.769Z,45.39
2022-08-10T21:07:57.856Z,45.64
2022-08-10T21:10:24.126Z,45.46
2022-08-10T21:12:59.099Z,45.80
2022-08-10T21:15:44.660Z,46.14
2022-08-10T21:18:25.423Z,46.29
2022-08-10T21:20:59.482Z,46.41
2022-08-10T21:23:31.083Z,46.69
2022-08-10T21:26:07.427Z,46.88
2022-08-10T21:28:49.991Z,46.66
2022-08-10T21:31:37.558Z,47.00
2022-08-10T21:34:32.142Z,47.44
2022-08-10T21:37:01.065Z,47.50
2022-08-10T21:39:44.551Z,47.53
2022-08-10T21:42:40.609Z,47.48
2022-08-10T21:45:47.564Z,47.72
2022-08-10T21:48:45.124Z,47.38
2022-08-10T21:52:02.111Z,47.43
2022-08-10T21:54:57.157Z,47.94
2022-08-10T21:57:45.571Z,47.90
2022-08-10T22:00:33.297Z,48.30
2022-08-10T22:03:21.559Z,47.97
2022-08-10T22:06:09.607Z,48.23
2022-08-10T22:08:59.678Z,48.63
2022-08-10T22:11:49.117Z,48.23
2022-08-10T22:14:43.021Z,48.35
2022-08-10T22:20:43.122Z,48.64
2022-08-10T22:23:47.700Z,48.81
2022-08-10T22:26:56.517Z,48.74
2022-08-10T22:29:51.763Z,49.23
2022-08-10T22:31:25.965Z,48.64
2022-08-10T22:32:45.016Z,49.49
2022-08-10T22:35:49.676Z,49.62
2022-08-10T22:38:47.087Z,49.58
2022-08-10T22:41:34.150Z,49.29
2022-08-10T22:44:21.840Z,49.46
2022-08-10T22:47:07.037Z,50.06
2022-08-10T22:49:33.718Z,49.91
2022-08-10T22:52:04.751Z,49.80
2022-08-10T22:54:52.173Z,49.98
2022-08-10T22:57:37.927Z,50.00
2022-08-10T23:00:15.065Z,50.27
2022-08-10T23:02:48.707Z,50.18
2022-08-10T23:05:17.236Z,49.99
2022-08-10T23:07:48.693Z,50.26
2022-08-10T23:10:19.112Z,50.24
2022-08-10T23:12:49.877Z,50.38
2022-08-10T23:15:39.404Z,50.47
2022-08-10T23:18:26.713Z,50.52
2022-08-10T23:20:55.077Z,51.25
2022-08-10T23:23:24.319Z,50.92
2022-08-10T23:25:57.463Z,51.11
2022-08-10T23:28:38.273Z,51.53
2022-08-10T23:31:12.263Z,51.49
2022-08-10T23:33:40.574Z,51.56
2022-08-10T23:36:34.194Z,51.47
2022-08-10T23:39:26.959Z,51.28
2022-08-10T23:41:46.729Z,51.54
2022-08-10T23:44:22.151Z,51.51
2022-08-10T23:46:51.350Z,51.66
2022-08-10T23:49:20.184Z,51.64
2022-08-10T23:51:54.832Z,51.51
2022-08-10T23:54:23.791Z,51.92
2022-08-10T23:56:53.644Z,52.14
2022-08-10T23:59:23.895Z,51.68
